Etusivu
METAR-TAF:

METAR-TAF

Lentoasemat :

Nouakchott, Mauritania

Nouakchottin kansainvälinen lentoasema

Leveyspiiri: 18-18-36N, Pituuspiiri: 015-58-11W, korkeus merenpinnasta: 3 m

Tämänhetkinen sää

Tämä raportti tehtiin 43 minuuttia sitten, kello 19.30 UTC
Tuuli 16 kn pohjoisen/luoteesta
Lämpötila 24°C
Kosteus 69%
Ilmanpaine 1010 hPa
Näkyvyys: 4000 m
hiekkatuisku

METAR: GQNO 251930Z 33016KT 4000 BLSA NSC 24/18 Q1010 NOSIG

Aika: 20:13 (20:13 UTC)

Sääennuste

Tämä raportti tehtiin 3 tuntia ja 13 minuuttia sitten, kello 17.00 UTC
Ennuste voimassa 25. päivästä klo 18 UTC - 26. päivään klo 24 UTC
Tuuli 18 kn pohjoisen/luoteesta
Näkyvyys: 4000 m
Tulossa
25. päivästä klo 19 UTC - 25. päivään klo 21 UTC
Näkyvyys: 6000 m

TAF: GQNO 251700Z 2518/2624 34018KT 4000 NSC BECMG 2519/2521 6000 NSW

Säähavainnot ja -ennusteet yli 4000 lentoasemalta (METAR- ja TAF-raportit).

Käytössä olevat sääasemat on merkitty karttaan keltaisilla ja punaisilla pisteillä.

Aseta hiiri pisteen päälle nähdäksesi sääaseman nimen.

Klikkaa sitten nähdäksesi säähavainnot ja -ennusteet.

Kartan vaihtaminen: klikkaa mustalla rastilla varustettuja vihreitä pisteitä, niin voit zoomata sisään; viivalla varustettua vihreää pistettä, niin voit zoomata ulos tai vihreitä nuolia, niin pääset viereisille kartoille.


METAR-TAF: